Jago, Mississippi
Current Conditions -  °F | °C
As of 6:54 PM on Saturday 22 Nov 2014 (Local Time) from KMEM Reporting Station
Scattered Clouds Scattered Clouds  
Wind Chill: 58°   Ceiling: Unl
Heat Index: 58°   Visibility: 10mi
Dew Point: 40°   Wind: 7mph
Humidity: 51%   Direction: 130°SE
Pressure: 30.04"   Gusts: NA
Location:  34.9498°N, 90.0305°W
Report Text: KMEM 230054Z 13006KT 10SM FEW100 SCT250 14/04 A3004 RMK AO2 SLP171 T01440044 $
Loading
Personal Weather Stations






























Interactive Weather Map New forecast layout! Learn more

10-Day Weather Forecast

Advertisements
Track Severe Weather on mobile